createdAt,value
2018-05-08T00:01:20.999Z,14.30
2018-05-08T00:03:49.311Z,14.20
2018-05-08T00:06:17.610Z,14.10
2018-05-08T00:08:46.758Z,14.10
2018-05-08T00:11:15.019Z,14.10
2018-05-08T00:13:43.331Z,14.10
2018-05-08T00:16:11.626Z,14.10
2018-05-08T00:18:39.941Z,14.00
2018-05-08T00:21:08.235Z,13.80
2018-05-08T00:23:36.534Z,13.60
2018-05-08T00:26:04.852Z,13.50
2018-05-08T00:28:33.160Z,13.40
2018-05-08T00:31:01.457Z,13.20
2018-05-08T00:33:29.750Z,13.10
2018-05-08T00:35:58.062Z,12.90
2018-05-08T00:38:27.123Z,12.80
2018-05-08T00:40:55.429Z,12.70
2018-05-08T00:43:24.498Z,12.80
2018-05-08T00:45:52.809Z,12.80
2018-05-08T00:48:21.866Z,12.80
2018-05-08T00:50:50.180Z,12.80
2018-05-08T00:53:18.476Z,12.60
2018-05-08T00:55:46.788Z,12.40
2018-05-08T00:58:15.080Z,12.20
2018-05-08T01:00:43.381Z,12.20
2018-05-08T01:03:11.683Z,12.20
2018-05-08T01:05:39.985Z,11.80
2018-05-08T01:08:08.726Z,12.00
2018-05-08T01:10:37.035Z,11.80
2018-05-08T01:13:05.336Z,11.80
2018-05-08T01:15:33.617Z,11.80
2018-05-08T01:18:02.701Z,11.60
2018-05-08T01:20:30.987Z,11.60
2018-05-08T01:22:59.303Z,11.50
2018-05-08T01:25:28.362Z,11.60
2018-05-08T01:27:56.672Z,11.60
2018-05-08T01:30:24.957Z,11.50
2018-05-08T01:32:54.037Z,11.40
2018-05-08T01:35:22.334Z,11.40
2018-05-08T01:37:51.415Z,11.30
2018-05-08T01:40:19.706Z,11.30
2018-05-08T01:42:48.782Z,11.30
2018-05-08T01:45:17.065Z,11.30
2018-05-08T01:47:46.141Z,11.20
2018-05-08T01:50:14.424Z,11.20
2018-05-08T01:52:42.738Z,11.20
2018-05-08T01:55:11.031Z,11.10
2018-05-08T01:57:39.347Z,11.00
2018-05-08T02:00:07.637Z,11.00
2018-05-08T02:02:35.931Z,11.00
2018-05-08T02:05:05.010Z,10.90
2018-05-08T02:07:33.297Z,10.90
2018-05-08T02:10:02.372Z,10.60
2018-05-08T02:12:30.685Z,10.60
2018-05-08T02:14:59.766Z,10.70
2018-05-08T02:17:28.049Z,10.70
2018-05-08T02:19:57.136Z,10.40
2018-05-08T02:22:25.434Z,10.40
2018-05-08T02:24:53.763Z,10.50
2018-05-08T02:27:22.040Z,10.40
2018-05-08T02:29:50.346Z,10.50
2018-05-08T02:32:19.397Z,10.40
2018-05-08T02:34:47.711Z,10.40
2018-05-08T02:37:15.995Z,10.30
2018-05-08T02:39:45.070Z,10.10
2018-05-08T02:42:13.355Z,10.10
2018-05-08T02:44:41.648Z,10.10
2018-05-08T02:47:09.962Z,10.10
2018-05-08T02:49:38.309Z,10.20
2018-05-08T02:52:07.380Z,10.10
2018-05-08T02:54:35.659Z,10.00
2018-05-08T02:57:03.961Z,9.90
2018-05-08T02:59:33.007Z,9.80
2018-05-08T03:02:01.301Z,9.80
2018-05-08T03:04:29.599Z,9.80
2018-05-08T03:06:57.891Z,9.80
2018-05-08T03:09:26.178Z,9.90
2018-05-08T03:11:54.504Z,9.80
2018-05-08T03:14:22.775Z,9.70
2018-05-08T03:16:51.089Z,9.50
2018-05-08T03:19:20.137Z,9.30
2018-05-08T03:21:48.442Z,9.30
2018-05-08T03:24:16.713Z,9.20
2018-05-08T03:26:45.022Z,9.30
2018-05-08T03:29:14.074Z,9.20
2018-05-08T03:31:42.363Z,9.20
2018-05-08T03:34:10.648Z,9.10
2018-05-08T03:36:38.941Z,9.10
2018-05-08T03:39:07.250Z,9.10
2018-05-08T03:41:35.574Z,9.00
2018-05-08T03:44:03.858Z,8.90
2018-05-08T03:46:32.152Z,8.80
2018-05-08T03:49:01.196Z,8.60
2018-05-08T03:51:29.469Z,8.60
2018-05-08T03:53:57.763Z,8.70
2018-05-08T03:56:26.050Z,8.60
2018-05-08T03:58:54.341Z,8.60
2018-05-08T04:01:34.555Z,8.40
2018-05-08T04:04:14.629Z,8.60
2018-05-08T04:07:03.633Z,8.60
2018-05-08T04:09:32.676Z,8.60
2018-05-08T04:12:00.956Z,8.60
2018-05-08T04:14:29.248Z,8.70
2018-05-08T04:16:59.154Z,8.70
2018-05-08T04:19:27.450Z,8.70
2018-05-08T04:21:55.740Z,8.70
2018-05-08T04:24:24.800Z,8.60
2018-05-08T04:26:53.084Z,8.60
2018-05-08T04:29:21.389Z,8.60
2018-05-08T04:31:50.440Z,8.70
2018-05-08T04:34:18.742Z,8.70
2018-05-08T04:36:47.046Z,8.60
2018-05-08T04:39:16.095Z,8.70
2018-05-08T04:41:44.367Z,8.70
2018-05-08T04:44:12.669Z,8.70
2018-05-08T04:46:40.958Z,8.70
2018-05-08T04:49:09.244Z,8.80
2018-05-08T04:51:37.527Z,8.90
2018-05-08T04:54:05.820Z,8.90
2018-05-08T04:56:34.102Z,9.00
2018-05-08T04:59:02.408Z,9.00
2018-05-08T05:01:30.682Z,9.10
2018-05-08T05:03:58.988Z,9.30
2018-05-08T05:06:27.270Z,9.30
2018-05-08T05:08:55.545Z,9.40
2018-05-08T05:11:23.846Z,9.50
2018-05-08T05:13:52.884Z,9.70
2018-05-08T05:16:21.193Z,9.70
2018-05-08T05:18:49.457Z,9.80
2018-05-08T05:21:17.761Z,9.90
2018-05-08T05:23:46.816Z,10.40
2018-05-08T05:26:15.118Z,10.40
2018-05-08T05:28:43.406Z,10.70
2018-05-08T05:31:11.709Z,10.90
2018-05-08T05:33:39.984Z,11.10
2018-05-08T05:36:08.303Z,11.30
2018-05-08T05:38:36.580Z,11.60
2018-05-08T05:41:04.905Z,12.00
2018-05-08T05:43:33.968Z,12.50
2018-05-08T05:46:02.267Z,12.50
2018-05-08T05:48:31.326Z,12.90
2018-05-08T05:50:59.632Z,12.90
2018-05-08T05:53:27.915Z,13.20
2018-05-08T05:55:56.205Z,13.40
2018-05-08T05:58:25.278Z,13.80
2018-05-08T06:00:53.571Z,13.80
2018-05-08T06:03:22.646Z,14.40
2018-05-08T06:05:50.933Z,14.40
2018-05-08T06:08:19.246Z,14.60
2018-05-08T06:10:47.537Z,14.80
2018-05-08T06:13:15.840Z,15.10
2018-05-08T06:15:44.132Z,15.30
2018-05-08T06:18:12.430Z,15.50
2018-05-08T06:20:41.486Z,16.10
2018-05-08T06:23:09.788Z,16.10
2018-05-08T06:25:38.081Z,16.40
2018-05-08T06:28:07.145Z,16.80
2018-05-08T06:30:37.081Z,17.00
2018-05-08T06:33:05.376Z,17.00
2018-05-08T06:35:33.660Z,17.40
2018-05-08T06:38:01.970Z,17.40
2018-05-08T06:40:30.249Z,17.70
2018-05-08T06:42:58.553Z,18.20
2018-05-08T06:45:26.839Z,18.50
2018-05-08T06:47:55.149Z,18.30
2018-05-08T06:50:23.428Z,18.50
2018-05-08T06:52:51.739Z,18.50
2018-05-08T06:55:20.021Z,19.10
2018-05-08T06:57:48.301Z,19.20
2018-05-08T07:00:16.604Z,19.60
2018-05-08T07:02:44.889Z,19.70
2018-05-08T07:05:13.963Z,19.80
2018-05-08T07:07:42.246Z,19.80
2018-05-08T07:10:10.565Z,19.50
2018-05-08T07:12:38.845Z,19.20
2018-05-08T07:15:07.145Z,19.40
2018-05-08T07:17:35.429Z,18.90
2018-05-08T07:20:03.737Z,19.10
2018-05-08T07:22:32.792Z,19.50
2018-05-08T07:25:01.094Z,19.50
2018-05-08T07:27:29.384Z,18.90
2018-05-08T07:29:57.720Z,18.50
2018-05-08T07:32:25.991Z,18.60
2018-05-08T07:34:54.289Z,19.30
2018-05-08T07:37:22.564Z,20.00
2018-05-08T07:39:50.872Z,19.40
2018-05-08T07:42:19.153Z,20.00
2018-05-08T07:44:47.452Z,19.30
2018-05-08T07:47:15.737Z,19.30
2018-05-08T07:49:44.069Z,19.70
2018-05-08T07:52:12.349Z,19.90
2018-05-08T07:54:40.642Z,19.70
2018-05-08T07:57:09.771Z,20.30
2018-05-08T07:59:38.062Z,20.20
2018-05-08T08:02:06.371Z,20.50
2018-05-08T08:04:34.670Z,20.50
2018-05-08T08:07:03.741Z,21.20
2018-05-08T08:09:32.022Z,21.20
2018-05-08T08:12:00.319Z,21.20
2018-05-08T08:14:29.364Z,20.50
2018-05-08T08:16:57.665Z,20.50
2018-05-08T08:19:25.948Z,20.60
2018-05-08T08:21:54.248Z,20.60
2018-05-08T08:24:23.295Z,21.40
2018-05-08T08:26:51.602Z,21.40
2018-05-08T08:29:19.881Z,21.40
2018-05-08T08:31:48.179Z,21.70
2018-05-08T08:34:17.227Z,21.90
2018-05-08T08:36:45.547Z,21.90
2018-05-08T08:39:14.600Z,21.60
2018-05-08T08:41:42.926Z,21.50
2018-05-08T08:44:11.990Z,21.40
2018-05-08T08:46:40.280Z,21.40
2018-05-08T08:49:08.580Z,21.80
2018-05-08T08:51:37.626Z,22.10
2018-05-08T08:54:05.940Z,22.10
2018-05-08T08:56:34.987Z,21.60
2018-05-08T08:59:03.289Z,21.50
2018-05-08T09:01:31.559Z,22.00
2018-05-08T09:03:59.928Z,22.10
2018-05-08T09:06:28.922Z,22.00
2018-05-08T09:08:57.220Z,22.00
2018-05-08T09:11:25.508Z,21.60
2018-05-08T09:13:53.850Z,22.30
2018-05-08T09:16:22.112Z,22.40
2018-05-08T09:18:50.427Z,22.20
2018-05-08T09:21:18.701Z,22.60
2018-05-08T09:23:46.996Z,22.40
2018-05-08T09:26:15.280Z,22.90
2018-05-08T09:28:44.372Z,22.60
2018-05-08T09:31:12.649Z,22.60
2018-05-08T09:33:41.727Z,23.30
2018-05-08T09:36:10.004Z,23.30
2018-05-08T09:38:38.313Z,23.30
2018-05-08T09:41:07.378Z,22.60
2018-05-08T09:43:35.670Z,22.60
2018-05-08T09:46:03.977Z,23.30
2018-05-08T09:48:32.261Z,22.40
2018-05-08T09:51:00.552Z,22.90
2018-05-08T09:53:28.842Z,22.70
2018-05-08T09:55:57.152Z,23.30
2018-05-08T09:58:25.429Z,23.00
2018-05-08T10:00:53.765Z,22.80
2018-05-08T10:03:22.023Z,22.40
2018-05-08T10:05:50.328Z,23.60
2018-05-08T10:08:18.613Z,23.20
2018-05-08T10:10:46.926Z,23.30
2018-05-08T10:13:15.976Z,23.90
2018-05-08T10:15:44.280Z,23.90
2018-05-08T10:18:12.589Z,23.40
2018-05-08T10:20:40.949Z,22.90
2018-05-08T10:23:09.184Z,23.70
2018-05-08T10:25:37.495Z,23.40
2018-05-08T10:28:05.775Z,23.60
2018-05-08T10:30:34.097Z,23.70
2018-05-08T10:33:02.487Z,24.10
2018-05-08T10:35:30.720Z,24.20
2018-05-08T10:37:58.996Z,24.00
2018-05-08T10:40:28.088Z,23.70
2018-05-08T10:42:57.150Z,23.50
2018-05-08T10:45:25.467Z,23.50
2018-05-08T10:47:54.508Z,23.90
2018-05-08T10:50:22.802Z,23.90
2018-05-08T10:52:51.101Z,23.90
2018-05-08T10:55:19.371Z,23.70
2018-05-08T10:57:47.681Z,24.10
2018-05-08T11:00:15.964Z,23.80
2018-05-08T11:02:44.260Z,23.90
2018-05-08T11:05:13.305Z,24.40
2018-05-08T11:07:41.612Z,24.40
2018-05-08T11:10:09.943Z,24.60
2018-05-08T11:12:38.251Z,24.80
2018-05-08T11:15:07.297Z,24.20
2018-05-08T11:17:35.604Z,24.10
2018-05-08T11:20:03.885Z,24.90
2018-05-08T11:22:32.193Z,24.90
2018-05-08T11:25:00.477Z,24.50
2018-05-08T11:27:28.776Z,25.00
2018-05-08T11:29:57.061Z,24.50
2018-05-08T11:32:25.392Z,24.70
2018-05-08T11:34:55.357Z,24.60
2018-05-08T11:37:23.656Z,24.60
2018-05-08T11:39:51.939Z,24.70
2018-05-08T11:42:20.239Z,24.60
2018-05-08T11:44:48.659Z,24.30
2018-05-08T11:47:16.900Z,24.70
2018-05-08T11:49:45.179Z,24.20
2018-05-08T11:52:13.495Z,24.40
2018-05-08T11:54:41.781Z,24.20
2018-05-08T11:57:10.091Z,24.50
2018-05-08T11:59:39.135Z,25.10
2018-05-08T12:02:07.424Z,25.10
2018-05-08T12:04:35.720Z,25.30
2018-05-08T12:07:04.001Z,24.90
2018-05-08T12:09:35.942Z,24.50
2018-05-08T12:12:04.222Z,24.00
2018-05-08T12:14:32.600Z,24.70
2018-05-08T12:17:01.591Z,25.40
2018-05-08T12:19:29.884Z,25.30
2018-05-08T12:21:58.164Z,25.10
2018-05-08T12:24:26.468Z,24.80
2018-05-08T12:26:55.521Z,25.00
2018-05-08T12:29:23.827Z,25.00
2018-05-08T12:31:52.887Z,25.20
2018-05-08T12:34:21.197Z,25.20
2018-05-08T12:36:50.244Z,24.90
2018-05-08T12:39:18.549Z,24.80
2018-05-08T12:41:46.824Z,25.40
2018-05-08T12:44:15.137Z,25.40
2018-05-08T12:46:44.186Z,25.00
2018-05-08T12:49:12.493Z,25.00
2018-05-08T12:51:40.773Z,24.90
2018-05-08T12:54:09.092Z,24.80
2018-05-08T12:56:37.380Z,24.90
2018-05-08T12:59:05.727Z,25.00
2018-05-08T13:01:34.092Z,25.20
2018-05-08T13:04:02.378Z,25.60
2018-05-08T13:06:31.447Z,25.50
2018-05-08T13:08:59.752Z,25.50
2018-05-08T13:11:28.064Z,25.60
2018-05-08T13:13:56.356Z,25.70
2018-05-08T13:16:24.659Z,25.50
2018-05-08T13:18:52.955Z,25.50
2018-05-08T13:21:22.051Z,25.60
2018-05-08T13:23:50.330Z,25.70
2018-05-08T13:26:19.397Z,25.50
2018-05-08T13:28:47.695Z,25.40
2018-05-08T13:31:16.773Z,25.40
2018-05-08T13:33:45.060Z,25.50
2018-05-08T13:36:13.362Z,25.00
2018-05-08T13:38:41.655Z,25.20
2018-05-08T13:41:09.969Z,25.50
2018-05-08T13:43:38.267Z,25.50
2018-05-08T13:46:06.583Z,25.80
2018-05-08T13:48:34.877Z,26.10
2018-05-08T13:51:03.167Z,25.90
2018-05-08T13:53:31.473Z,25.70
2018-05-08T13:55:59.749Z,25.70
2018-05-08T13:58:28.059Z,25.50
2018-05-08T14:00:56.405Z,25.60
2018-05-08T14:03:24.682Z,25.40
2018-05-08T14:05:52.983Z,25.50
2018-05-08T14:08:22.049Z,25.70
2018-05-08T14:10:50.329Z,25.70
2018-05-08T14:13:18.627Z,25.20
2018-05-08T14:15:47.700Z,25.40
2018-05-08T14:18:16.003Z,25.40
2018-05-08T14:20:45.060Z,25.40
2018-05-08T14:23:13.367Z,25.40
2018-05-08T14:25:42.404Z,25.80
2018-05-08T14:28:10.709Z,25.80
2018-05-08T14:30:38.997Z,25.60
2018-05-08T14:33:07.336Z,25.40
2018-05-08T14:35:35.628Z,25.50
2018-05-08T14:38:03.927Z,25.50
2018-05-08T14:40:32.207Z,25.40
2018-05-08T14:43:00.533Z,25.40
2018-05-08T14:45:31.906Z,25.30
2018-05-08T14:48:00.245Z,25.60
2018-05-08T14:50:28.534Z,25.60
2018-05-08T14:52:56.810Z,25.50
2018-05-08T14:55:25.114Z,25.70
2018-05-08T14:57:53.404Z,25.90
2018-05-08T15:00:21.712Z,25.70
2018-05-08T15:02:50.756Z,25.50
2018-05-08T15:05:19.055Z,25.50
2018-05-08T15:07:47.343Z,25.60
2018-05-08T15:10:15.768Z,25.60
2018-05-08T15:12:44.070Z,25.40
2018-05-08T15:15:12.387Z,25.60
2018-05-08T15:17:40.754Z,25.50
2018-05-08T15:20:09.048Z,25.60
2018-05-08T15:22:37.328Z,25.30
2018-05-08T15:25:06.399Z,25.50
2018-05-08T15:27:34.704Z,25.50
2018-05-08T15:30:03.864Z,25.40
2018-05-08T15:32:32.156Z,25.40
2018-05-08T15:35:00.458Z,25.40
2018-05-08T15:37:28.802Z,25.30
2018-05-08T15:39:57.149Z,25.50
2018-05-08T15:42:25.460Z,25.30
2018-05-08T15:44:53.772Z,25.30
2018-05-08T15:47:22.880Z,25.40
2018-05-08T15:49:51.126Z,25.30
2018-05-08T15:52:19.437Z,25.60
2018-05-08T15:54:50.507Z,25.30
2018-05-08T15:57:19.688Z,25.10
2018-05-08T15:59:48.522Z,25.00
2018-05-08T16:02:17.627Z,25.20
2018-05-08T16:04:46.289Z,25.20
2018-05-08T16:07:15.000Z,25.10
2018-05-08T16:09:43.821Z,25.20
2018-05-08T16:12:12.260Z,25.30
2018-05-08T16:14:40.918Z,25.50
2018-05-08T16:17:09.671Z,25.40
2018-05-08T16:19:41.982Z,25.40
2018-05-08T16:22:11.374Z,25.40
2018-05-08T16:24:40.060Z,25.30
2018-05-08T16:27:09.402Z,25.20
2018-05-08T16:29:37.800Z,25.20
2018-05-08T16:32:06.182Z,25.20
2018-05-08T16:34:35.420Z,25.10
2018-05-08T16:37:04.065Z,25.10
2018-05-08T16:39:33.457Z,25.10
2018-05-08T16:42:02.598Z,25.10
2018-05-08T16:44:32.794Z,25.20
2018-05-08T16:47:02.157Z,25.20
2018-05-08T16:49:32.729Z,25.10
2018-05-08T16:52:06.664Z,25.10
2018-05-08T16:54:38.662Z,25.00
2018-05-08T16:57:11.514Z,24.90
2018-05-08T16:59:42.742Z,25.00
2018-05-08T17:02:22.595Z,24.80
2018-05-08T17:04:53.639Z,24.90
2018-05-08T17:07:30.210Z,24.80
2018-05-08T17:10:00.647Z,25.00
2018-05-08T17:12:31.088Z,25.00
2018-05-08T17:14:59.376Z,24.80
2018-05-08T17:17:28.736Z,24.90
2018-05-08T17:19:57.029Z,24.80
2018-05-08T17:22:25.381Z,24.70
2018-05-08T17:24:54.627Z,24.60
2018-05-08T17:27:23.736Z,24.50
2018-05-08T17:29:52.155Z,24.40
2018-05-08T17:32:20.441Z,24.40
2018-05-08T17:34:48.769Z,24.50
2018-05-08T17:37:17.060Z,24.60
2018-05-08T17:39:46.335Z,24.60
2018-05-08T17:42:15.629Z,24.20
2018-05-08T17:44:43.936Z,24.20
2018-05-08T17:47:17.108Z,24.30
2018-05-08T17:49:45.432Z,24.40
2018-05-08T17:52:14.505Z,24.00
2018-05-08T17:54:42.820Z,24.00
2018-05-08T17:57:11.101Z,24.20
2018-05-08T17:59:39.410Z,24.20
2018-05-08T18:02:07.689Z,24.30
2018-05-08T18:04:36.760Z,24.30
2018-05-08T18:07:05.040Z,24.20
2018-05-08T18:09:33.356Z,24.30
2018-05-08T18:12:01.645Z,24.10
2018-05-08T18:14:29.928Z,24.10
2018-05-08T18:16:59.015Z,24.10
2018-05-08T18:19:27.289Z,24.10
2018-05-08T18:21:55.624Z,24.20
2018-05-08T18:24:23.912Z,24.20
2018-05-08T18:26:52.221Z,24.00
2018-05-08T18:29:20.508Z,23.90
2018-05-08T18:31:48.828Z,23.70
2018-05-08T18:34:17.117Z,23.60
2018-05-08T18:36:45.411Z,23.60
2018-05-08T18:39:13.704Z,23.20
2018-05-08T18:41:42.013Z,23.00
2018-05-08T18:44:11.073Z,22.70
2018-05-08T18:46:39.399Z,22.70
2018-05-08T18:49:07.688Z,22.70
2018-05-08T18:51:35.999Z,22.80
2018-05-08T18:54:04.282Z,22.60
2018-05-08T18:56:32.614Z,22.30
2018-05-08T18:59:00.925Z,22.10
2018-05-08T19:01:29.208Z,22.00
2018-05-08T19:03:57.539Z,21.90
2018-05-08T19:06:26.596Z,21.60
2018-05-08T19:08:54.905Z,21.60
2018-05-08T19:11:29.687Z,21.20
2018-05-08T19:13:58.017Z,21.10
2018-05-08T19:16:27.071Z,21.10
2018-05-08T19:19:00.952Z,21.10
2018-05-08T19:21:29.250Z,20.90
2018-05-08T19:24:03.200Z,21.00
2018-05-08T19:26:32.266Z,20.70
2018-05-08T19:29:06.273Z,20.70
2018-05-08T19:31:34.559Z,20.50
2018-05-08T19:34:02.873Z,20.30
2018-05-08T19:36:36.736Z,20.40
2018-05-08T19:39:05.965Z,19.90
2018-05-08T19:41:34.160Z,19.90
2018-05-08T19:44:02.464Z,19.60
2018-05-08T19:46:30.759Z,19.40
2018-05-08T19:48:59.103Z,19.10
2018-05-08T19:51:27.409Z,19.10
2018-05-08T19:53:55.724Z,19.30
2018-05-08T19:56:24.794Z,19.20
2018-05-08T19:58:53.109Z,19.20
2018-05-08T20:01:24.812Z,18.80
2018-05-08T20:03:53.135Z,18.90
2018-05-08T20:06:22.201Z,18.70
2018-05-08T20:08:50.594Z,18.60
2018-05-08T20:11:18.800Z,18.40
2018-05-08T20:13:47.086Z,18.40
2018-05-08T20:16:15.406Z,18.40
2018-05-08T20:18:43.699Z,18.40
2018-05-08T20:21:12.014Z,18.20
2018-05-08T20:23:40.297Z,18.10
2018-05-08T20:26:08.607Z,18.00
2018-05-08T20:28:36.896Z,17.90
2018-05-08T20:31:05.975Z,17.50
2018-05-08T20:33:34.265Z,17.40
2018-05-08T20:36:02.658Z,17.40
2018-05-08T20:38:30.907Z,17.40
2018-05-08T20:40:59.217Z,17.20
2018-05-08T20:43:27.511Z,17.20
2018-05-08T20:45:56.575Z,17.20
2018-05-08T20:48:24.868Z,17.20
2018-05-08T20:50:53.949Z,17.00
2018-05-08T20:53:22.224Z,16.90
2018-05-08T20:55:50.522Z,17.00
2018-05-08T20:58:19.574Z,16.70
2018-05-08T21:00:47.917Z,16.60
2018-05-08T21:03:16.960Z,16.30
2018-05-08T21:05:45.264Z,16.30
2018-05-08T21:08:13.564Z,16.50
2018-05-08T21:10:41.872Z,16.50
2018-05-08T21:13:10.156Z,16.20
2018-05-08T21:15:38.470Z,16.40
2018-05-08T21:18:07.533Z,16.10
2018-05-08T21:20:35.846Z,16.10
2018-05-08T21:23:04.152Z,15.90
2018-05-08T21:25:32.440Z,15.80
2018-05-08T21:28:06.313Z,15.80
2018-05-08T21:30:41.184Z,15.80
2018-05-08T21:33:09.449Z,15.70
2018-05-08T21:35:37.747Z,15.60
2018-05-08T21:38:06.055Z,15.50
2018-05-08T21:40:34.341Z,15.60
2018-05-08T21:43:02.653Z,15.40
2018-05-08T21:45:30.933Z,15.40
2018-05-08T21:47:59.257Z,15.40
2018-05-08T21:50:27.541Z,15.10
2018-05-08T21:52:55.867Z,15.00
2018-05-08T21:55:24.154Z,15.00
2018-05-08T21:57:52.473Z,14.90
2018-05-08T22:00:20.756Z,14.90
2018-05-08T22:02:49.069Z,15.10
2018-05-08T22:05:17.376Z,15.00
2018-05-08T22:07:45.698Z,14.90
2018-05-08T22:10:13.980Z,15.00
2018-05-08T22:12:43.026Z,14.70
2018-05-08T22:15:11.347Z,14.70
2018-05-08T22:17:40.393Z,14.60
2018-05-08T22:20:08.723Z,14.60
2018-05-08T22:22:36.993Z,14.40
2018-05-08T22:25:06.149Z,14.30
2018-05-08T22:27:34.369Z,14.30
2018-05-08T22:30:03.467Z,14.10
2018-05-08T22:32:31.781Z,14.10
2018-05-08T22:35:00.108Z,14.10
2018-05-08T22:37:28.394Z,14.10
2018-05-08T22:39:56.692Z,13.90
2018-05-08T22:42:24.980Z,13.90
2018-05-08T22:44:53.289Z,14.00
2018-05-08T22:47:21.563Z,14.00
2018-05-08T22:49:49.894Z,14.00
2018-05-08T22:52:18.943Z,13.70
2018-05-08T22:54:47.256Z,13.70
2018-05-08T22:57:16.307Z,13.50
2018-05-08T22:59:44.613Z,13.50
2018-05-08T23:02:12.921Z,13.60
2018-05-08T23:04:41.204Z,13.70
2018-05-08T23:07:09.517Z,13.60
2018-05-08T23:09:37.825Z,13.50
2018-05-08T23:12:06.124Z,13.50
2018-05-08T23:14:35.175Z,13.40
2018-05-08T23:17:03.479Z,13.30
2018-05-08T23:19:31.777Z,13.30
2018-05-08T23:22:00.843Z,13.30
2018-05-08T23:24:29.136Z,13.30
2018-05-08T23:26:57.445Z,13.30
2018-05-08T23:29:25.738Z,13.20
2018-05-08T23:31:54.035Z,13.20
2018-05-08T23:34:22.317Z,13.10
2018-05-08T23:36:50.640Z,13.00
2018-05-08T23:39:18.919Z,13.10
2018-05-08T23:41:47.231Z,13.10
2018-05-08T23:44:15.514Z,13.10
2018-05-08T23:46:43.825Z,13.10
2018-05-08T23:49:12.112Z,13.00
2018-05-08T23:51:41.213Z,12.80
2018-05-08T23:54:10.272Z,12.80
2018-05-08T23:56:38.591Z,12.80
2018-05-08T23:59:07.644Z,12.80
